Time;durP1;ratioP1;P1;durP2;ratioP2;P2;SDS_P1;SDS_P2;PMS_P1;PMS_P2;Temp;Humidity;BMP_temperature;BMP_pressure;BME280_temperature;BME280_humidity;BME280_pressure;Samples;Min_cycle;Max_cycle;Signal;HPM_P1;HPM_P2
2022/03/03 00:01:23;;;;;;;38.70;22.70;;;;;;;-1.75;64.44;96896.83;107502;1273;30490;-74
2022/03/03 00:03:54;;;;;;;45.90;23.10;;;;;;;-1.76;64.35;96898.91;107476;1273;44300;-74
2022/03/03 00:06:24;;;;;;;37.90;21.30;;;;;;;-1.76;64.51;96903.59;107473;1273;41509;-73
2022/03/03 00:08:55;;;;;;;41.50;23.00;;;;;;;-1.76;64.21;96901.30;107525;1273;46338;-73
2022/03/03 00:11:26;;;;;;;39.10;21.90;;;;;;;-1.74;64.45;96899.19;107521;1273;42784;-74
2022/03/03 00:13:57;;;;;;;36.00;20.20;;;;;;;-1.72;64.41;96898.88;107571;1273;34863;-73
2022/03/03 00:16:28;;;;;;;36.70;21.50;;;;;;;-1.70;64.24;96900.14;107551;1273;39876;-73
2022/03/03 00:18:59;;;;;;;36.30;22.00;;;;;;;-1.67;64.19;96899.71;107450;1273;40130;-73
2022/03/03 00:21:30;;;;;;;34.50;20.10;;;;;;;-1.65;64.19;96892.48;107468;1273;51067;-74
2022/03/03 00:24:01;;;;;;;36.80;20.70;;;;;;;-1.66;64.18;96888.13;107550;1273;29925;-74
2022/03/03 00:26:32;;;;;;;39.70;21.90;;;;;;;-1.70;64.57;96881.89;107524;1273;29404;-74
2022/03/03 00:29:03;;;;;;;40.80;23.10;;;;;;;-1.74;64.58;96880.40;107508;1272;35965;-74
2022/03/03 00:31:34;;;;;;;41.60;22.70;;;;;;;-1.76;64.48;96883.59;107485;1273;28086;-74
2022/03/03 00:34:05;;;;;;;41.00;21.80;;;;;;;-1.77;64.34;96880.31;107506;1271;40362;-74
2022/03/03 00:36:36;;;;;;;43.60;25.00;;;;;;;-1.80;64.39;96872.95;107507;1273;30912;-74
2022/03/03 00:39:07;;;;;;;47.80;25.00;;;;;;;-1.79;64.27;96876.23;107484;1272;42188;-73
2022/03/03 00:41:38;;;;;;;49.10;26.60;;;;;;;-1.82;64.23;96871.86;107485;1273;36709;-74
2022/03/03 00:44:10;;;;;;;45.20;24.30;;;;;;;-1.83;64.13;96867.49;107494;1272;51493;-73
2022/03/03 00:46:41;;;;;;;44.00;25.10;;;;;;;-1.83;64.29;96860.58;107388;1273;109914;-74
2022/03/03 00:49:12;;;;;;;38.20;23.10;;;;;;;-1.85;64.34;96858.84;107466;1271;41864;-74
2022/03/03 00:51:43;;;;;;;41.50;22.90;;;;;;;-1.84;64.39;96864.67;107462;1273;49554;-73
2022/03/03 00:54:14;;;;;;;35.10;21.40;;;;;;;-1.82;64.18;96865.27;107491;1273;37400;-74
2022/03/03 00:56:45;;;;;;;45.10;25.00;;;;;;;-1.83;64.36;96857.58;107465;1273;32900;-74
2022/03/03 00:59:16;;;;;;;42.10;24.10;;;;;;;-1.82;64.39;96852.09;107451;1271;46168;-74
2022/03/03 01:01:46;;;;;;;38.10;23.00;;;;;;;-1.81;64.28;96856.72;107493;1273;42048;-74
2022/03/03 01:04:19;;;;;;;40.50;22.80;;;;;;;-1.81;64.23;96853.04;107540;1273;33283;-73
2022/03/03 01:06:50;;;;;;;51.40;26.60;;;;;;;-1.82;64.10;96850.19;107474;1272;54168;-74
2022/03/03 01:09:21;;;;;;;47.60;25.50;;;;;;;-1.86;64.12;96848.08;107483;1273;44834;-73
2022/03/03 01:11:52;;;;;;;48.10;27.50;;;;;;;-1.91;64.29;96850.36;107508;1273;39685;-74
2022/03/03 01:14:25;;;;;;;48.00;26.50;;;;;;;-1.94;64.33;96842.91;107482;1273;45044;-74
2022/03/03 01:16:56;;;;;;;43.10;24.50;;;;;;;-1.96;64.23;96841.81;107548;1273;39146;-73
2022/03/03 01:19:28;;;;;;;41.00;24.00;;;;;;;-1.98;64.30;96848.23;107532;1273;41229;-74
2022/03/03 01:21:59;;;;;;;41.80;23.20;;;;;;;-2.00;64.49;96846.27;107449;1273;49378;-74
2022/03/03 01:24:31;;;;;;;40.70;22.10;;;;;;;-2.00;64.24;96844.18;107502;1273;39577;-74
2022/03/03 01:27:02;;;;;;;43.60;23.10;;;;;;;-1.98;64.34;96841.13;107449;1273;45693;-74
2022/03/03 01:29:33;;;;;;;38.40;20.20;;;;;;;-1.94;64.37;96845.71;107434;1273;54038;-74
2022/03/03 01:32:05;;;;;;;35.50;20.60;;;;;;;-1.91;64.26;96839.59;107437;1274;42307;-74
2022/03/03 01:34:37;;;;;;;34.80;19.90;;;;;;;-1.88;64.32;96830.05;107541;1273;43206;-74
2022/03/03 01:37:08;;;;;;;34.90;22.40;;;;;;;-1.89;64.51;96828.29;107478;1273;35556;-74
2022/03/03 01:39:39;;;;;;;41.00;23.60;;;;;;;-1.97;64.54;96826.66;107454;1273;46063;-74
2022/03/03 01:42:10;;;;;;;42.60;23.60;;;;;;;-2.03;64.57;96830.74;107476;1273;44306;-74
2022/03/03 01:44:45;;;;;;;43.30;24.00;;;;;;;-2.05;64.71;96823.27;107478;1273;32281;-74
2022/03/03 01:47:20;;;;;;;42.40;22.90;;;;;;;-2.05;64.80;96824.07;107473;1273;40746;-74
2022/03/03 01:49:54;;;;;;;42.80;23.00;;;;;;;-2.07;64.98;96818.27;107468;1273;43035;-74
2022/03/03 01:52:25;;;;;;;51.10;28.40;;;;;;;-2.07;64.81;96817.31;107487;1272;43662;-74
2022/03/03 01:54:56;;;;;;;39.70;23.00;;;;;;;-2.10;65.04;96810.11;107595;1273;39363;-74
2022/03/03 01:57:27;;;;;;;47.70;27.70;;;;;;;-2.11;64.81;96807.90;107550;1272;38033;-73
2022/03/03 01:59:59;;;;;;;44.40;23.90;;;;;;;-2.11;64.91;96806.51;107557;1272;44999;-74
2022/03/03 02:02:30;;;;;;;46.30;25.10;;;;;;;-2.12;64.86;96802.96;107526;1273;46105;-74
2022/03/03 02:05:01;;;;;;;49.50;26.40;;;;;;;-2.14;64.77;96802.36;107535;1273;43271;-74
2022/03/03 02:07:33;;;;;;;43.80;25.60;;;;;;;-2.17;64.68;96805.35;107266;1272;297698;-74
2022/03/03 02:10:06;;;;;;;48.60;29.20;;;;;;;-2.17;64.75;96803.36;107534;1272;36697;-74
2022/03/03 02:12:37;;;;;;;45.10;27.30;;;;;;;-2.14;64.68;96802.37;107506;1273;41522;-74
2022/03/03 02:15:16;;;;;;;57.10;29.50;;;;;;;-2.11;64.81;96795.20;107499;1273;37169;-74
2022/03/03 02:17:47;;;;;;;51.60;27.90;;;;;;;-2.10;64.64;96789.34;107612;1273;30200;-74
2022/03/03 02:20:23;;;;;;;51.90;27.20;;;;;;;-2.09;64.81;96785.34;107506;1273;40729;-74
2022/03/03 02:22:55;;;;;;;45.30;24.30;;;;;;;-2.11;64.71;96783.61;107494;1273;34678;-74
2022/03/03 02:25:27;;;;;;;37.30;21.30;;;;;;;-2.09;64.43;96784.42;107487;1272;60607;-74
2022/03/03 02:27:58;;;;;;;44.50;26.10;;;;;;;-2.06;64.64;96786.66;107536;1273;41739;-74
2022/03/03 02:30:28;;;;;;;43.10;25.60;;;;;;;-2.06;64.76;96782.44;107506;1273;41908;-73
2022/03/03 02:32:59;;;;;;;37.00;20.90;;;;;;;-2.06;64.75;96786.63;107545;1272;40583;-74
2022/03/03 02:35:30;;;;;;;39.90;18.80;;;;;;;-2.07;64.69;96782.83;107544;1273;27478;-73
2022/03/03 02:38:01;;;;;;;41.30;23.60;;;;;;;-2.09;64.73;96783.55;107462;1274;38519;-75
2022/03/03 02:40:32;;;;;;;40.10;20.90;;;;;;;-2.10;64.62;96779.86;107461;1273;43878;-74
2022/03/03 02:43:03;;;;;;;50.60;28.80;;;;;;;-2.13;64.84;96777.63;107455;1274;28545;-74
2022/03/03 02:45:34;;;;;;;41.80;22.70;;;;;;;-2.14;64.78;96775.27;107495;1273;38716;-74
2022/03/03 02:48:05;;;;;;;49.70;25.00;;;;;;;-2.15;64.58;96775.43;107393;1274;46125;-74
2022/03/03 02:50:36;;;;;;;50.50;28.20;;;;;;;-2.15;64.76;96775.42;107527;1273;31748;-74
2022/03/03 02:53:07;;;;;;;45.40;26.70;;;;;;;-2.13;64.62;96769.01;107502;1274;42018;-73
2022/03/03 02:55:38;;;;;;;45.50;27.60;;;;;;;-2.13;64.46;96767.84;107469;1274;40537;-73
2022/03/03 02:58:10;;;;;;;47.70;26.70;;;;;;;-2.12;64.61;96763.59;107484;1274;44210;-74
2022/03/03 03:00:43;;;;;;;41.00;23.60;;;;;;;-2.11;64.51;96760.07;107559;1273;41054;-74
2022/03/03 03:03:14;;;;;;;48.30;26.40;;;;;;;-2.12;64.52;96757.86;107570;1273;43050;-74
2022/03/03 03:05:46;;;;;;;46.00;27.10;;;;;;;-2.12;64.49;96759.86;107618;1273;28361;-74
2022/03/03 03:08:17;;;;;;;50.10;26.10;;;;;;;-2.12;64.74;96757.39;107573;1272;38396;-73
2022/03/03 03:10:48;;;;;;;49.20;27.50;;;;;;;-2.13;64.69;96759.21;107584;1273;40166;-73
2022/03/03 03:13:19;;;;;;;47.40;28.00;;;;;;;-2.14;64.83;96758.29;107609;1273;31615;-73
2022/03/03 03:15:50;;;;;;;50.50;28.30;;;;;;;-2.13;64.92;96756.90;107550;1273;54247;-73
2022/03/03 03:18:22;;;;;;;44.90;26.30;;;;;;;-2.15;64.91;96760.58;107512;1273;39942;-73
2022/03/03 03:20:54;;;;;;;52.70;27.70;;;;;;;-2.15;64.82;96758.16;107560;1273;32451;-73
2022/03/03 03:23:26;;;;;;;50.80;29.00;;;;;;;-2.17;65.12;96757.69;107577;1273;31886;-74
2022/03/03 03:25:57;;;;;;;49.80;28.30;;;;;;;-2.19;65.19;96755.92;107661;1273;34228;-74
2022/03/03 03:28:27;;;;;;;56.40;29.00;;;;;;;-2.20;65.17;96757.45;107669;1273;27510;-74
2022/03/03 03:30:58;;;;;;;51.70;27.10;;;;;;;-2.20;65.29;96755.89;107565;1273;49382;-74
2022/03/03 03:33:29;;;;;;;51.00;28.20;;;;;;;-2.19;65.21;96754.53;107615;1273;29818;-73
2022/03/03 03:36:00;;;;;;;53.90;30.00;;;;;;;-2.19;65.33;96753.85;107606;1274;31590;-74
2022/03/03 03:38:31;;;;;;;47.30;28.00;;;;;;;-2.20;65.35;96754.97;107545;1273;41143;-74
2022/03/03 03:41:02;;;;;;;52.10;29.70;;;;;;;-2.21;65.36;96755.77;107585;1273;43018;-74
2022/03/03 03:43:34;;;;;;;51.30;29.30;;;;;;;-2.21;65.34;96757.52;107633;1273;31551;-74
2022/03/03 03:46:05;;;;;;;50.70;28.20;;;;;;;-2.22;65.31;96758.88;107578;1273;34438;-74
2022/03/03 03:48:36;;;;;;;49.20;27.70;;;;;;;-2.20;65.40;96754.17;107536;1272;39903;-74
2022/03/03 03:51:07;;;;;;;54.40;28.20;;;;;;;-2.19;65.40;96754.69;107549;1273;34977;-74
2022/03/03 03:53:37;;;;;;;48.40;27.10;;;;;;;-2.17;65.37;96754.17;107585;1273;40008;-74
2022/03/03 03:56:09;;;;;;;43.60;25.60;;;;;;;-2.15;65.48;96750.94;107574;1270;41353;-73
2022/03/03 03:58:40;;;;;;;42.40;24.90;;;;;;;-2.15;65.23;96751.45;107555;1273;39322;-74
2022/03/03 04:01:10;;;;;;;50.50;29.10;;;;;;;-2.17;65.30;96751.26;107559;1273;33068;-74
2022/03/03 04:03:41;;;;;;;49.70;29.20;;;;;;;-2.18;65.47;96751.90;107497;1273;77498;-73
2022/03/03 04:06:12;;;;;;;49.70;29.60;;;;;;;-2.18;65.58;96746.82;107468;1274;35265;-74
2022/03/03 04:08:43;;;;;;;50.80;28.80;;;;;;;-2.19;65.58;96744.83;107545;1273;37924;-74
2022/03/03 04:11:14;;;;;;;54.60;30.40;;;;;;;-2.21;65.56;96750.25;107547;1273;48494;-74
2022/03/03 04:13:45;;;;;;;59.80;30.90;;;;;;;-2.22;65.60;96751.61;107537;1273;40703;-74
2022/03/03 04:16:16;;;;;;;52.70;28.30;;;;;;;-2.21;65.56;96755.45;107559;1273;34806;-74
2022/03/03 04:18:47;;;;;;;54.70;28.00;;;;;;;-2.19;65.54;96756.13;107585;1273;54536;-74
2022/03/03 04:21:18;;;;;;;56.50;27.10;;;;;;;-2.17;65.43;96757.21;107540;1273;39339;-74
2022/03/03 04:23:50;;;;;;;42.40;24.00;;;;;;;-2.15;65.47;96757.14;107476;1274;38973;-74
2022/03/03 04:26:20;;;;;;;41.40;24.00;;;;;;;-2.12;65.47;96756.16;107557;1273;41837;-73
2022/03/03 04:28:51;;;;;;;41.90;22.80;;;;;;;-2.07;65.33;96756.70;107581;1273;47972;-73
2022/03/03 04:31:22;;;;;;;32.50;18.50;;;;;;;-2.04;65.00;96755.58;107524;1273;53327;-74
2022/03/03 04:33:53;;;;;;;36.20;20.70;;;;;;;-1.98;64.92;96754.73;107557;1273;36328;-74
2022/03/03 04:36:24;;;;;;;36.50;20.40;;;;;;;-1.94;64.74;96750.46;107605;1273;31489;-73
2022/03/03 04:38:55;;;;;;;32.70;19.30;;;;;;;-1.90;64.38;96746.95;107597;1273;41597;-74
2022/03/03 04:41:26;;;;;;;41.20;21.30;;;;;;;-1.86;64.38;96745.35;107662;1273;39703;-73
2022/03/03 04:43:57;;;;;;;32.70;19.80;;;;;;;-1.84;64.27;96743.39;107644;1273;42701;-73
2022/03/03 04:46:28;;;;;;;30.10;17.30;;;;;;;-1.83;64.15;96744.02;107626;1273;41700;-74
2022/03/03 04:49:01;;;;;;;31.00;18.50;;;;;;;-1.81;64.12;96736.30;107644;1273;46559;-73
2022/03/03 04:51:36;;;;;;;40.10;20.50;;;;;;;-1.78;64.17;96735.80;107600;1273;62089;-74
2022/03/03 04:54:09;;;;;;;39.10;22.30;;;;;;;-1.82;64.21;96726.66;107562;1273;34969;-74
2022/03/03 04:56:41;;;;;;;35.30;21.70;;;;;;;-1.87;64.24;96718.13;107634;1273;28501;-74
2022/03/03 04:59:12;;;;;;;39.20;23.10;;;;;;;-1.91;64.44;96710.98;107609;1273;33290;-74
2022/03/03 05:01:43;;;;;;;50.40;28.80;;;;;;;-1.94;64.50;96704.38;107614;1273;43485;-74
2022/03/03 05:04:14;;;;;;;47.20;26.70;;;;;;;-1.99;64.80;96704.44;107563;1273;44497;-73
2022/03/03 05:06:44;;;;;;;45.90;26.30;;;;;;;-2.02;64.85;96703.52;107601;1273;43880;-74
2022/03/03 05:09:16;;;;;;;54.60;31.50;;;;;;;-2.10;65.05;96695.18;107579;1273;41509;-73
2022/03/03 05:11:47;;;;;;;59.00;34.00;;;;;;;-2.21;65.12;96697.76;107534;1273;43154;-74
2022/03/03 05:14:17;;;;;;;59.60;33.50;;;;;;;-2.26;65.21;96701.04;107585;1273;29570;-73
2022/03/03 05:16:48;;;;;;;57.40;33.10;;;;;;;-2.26;65.48;96702.44;107559;1273;41435;-74
2022/03/03 05:19:19;;;;;;;61.70;33.50;;;;;;;-2.25;65.72;96704.25;107596;1273;42763;-74
2022/03/03 05:21:50;;;;;;;62.70;34.40;;;;;;;-2.24;65.79;96705.27;107560;1273;31698;-74
2022/03/03 05:24:22;;;;;;;62.00;34.10;;;;;;;-2.22;65.84;96705.59;107534;1274;42276;-74
2022/03/03 05:26:53;;;;;;;61.30;33.70;;;;;;;-2.22;65.84;96703.83;107490;1275;41443;-74
2022/03/03 05:29:24;;;;;;;60.50;34.70;;;;;;;-2.22;65.95;96704.54;107521;1273;47500;-74
2022/03/03 05:31:57;;;;;;;60.80;33.90;;;;;;;-2.22;66.07;96704.14;107468;1274;29249;-74
2022/03/03 05:34:29;;;;;;;62.40;35.00;;;;;;;-2.20;66.32;96700.55;107599;1273;38896;-74
2022/03/03 05:37:01;;;;;;;52.50;31.50;;;;;;;-2.20;66.29;96697.80;107603;1273;42035;-73
2022/03/03 05:39:32;;;;;;;53.60;31.20;;;;;;;-2.19;66.45;96700.55;107518;1273;46227;-74
2022/03/03 05:42:04;;;;;;;63.00;34.90;;;;;;;-2.20;66.59;96698.84;107572;1273;40573;-74
2022/03/03 05:44:35;;;;;;;53.50;28.90;;;;;;;-2.21;66.86;96701.27;107477;1274;40400;-74
2022/03/03 05:47:07;;;;;;;47.70;27.90;;;;;;;-2.22;67.23;96702.86;107612;1273;30590;-74
2022/03/03 05:49:40;;;;;;;48.30;27.90;;;;;;;-2.21;67.41;96706.51;107524;1273;41041;-74
2022/03/03 05:52:13;;;;;;;44.40;25.10;;;;;;;-2.19;67.59;96704.27;107532;1274;39257;-74
2022/03/03 05:54:44;;;;;;;44.50;25.90;;;;;;;-2.15;67.60;96701.20;107557;1274;69686;-74
2022/03/03 05:57:20;;;;;;;45.00;27.00;;;;;;;-2.10;67.49;96702.06;107543;1273;33825;-73
2022/03/03 05:59:53;;;;;;;44.00;26.00;;;;;;;-2.04;67.63;96696.64;107623;1274;38161;-73
2022/03/03 06:02:24;;;;;;;41.40;25.40;;;;;;;-2.00;67.83;96690.05;107552;1274;47639;-74
2022/03/03 06:04:55;;;;;;;46.90;27.10;;;;;;;-1.95;68.24;96687.35;107615;1273;38963;-73
2022/03/03 06:07:29;;;;;;;47.50;27.60;;;;;;;-1.90;67.94;96689.16;107553;1273;39764;-73
2022/03/03 06:10:05;;;;;;;42.50;26.70;;;;;;;-1.84;67.95;96690.88;107735;1273;40010;-74
2022/03/03 06:12:41;;;;;;;45.00;27.00;;;;;;;-1.74;67.96;96686.21;107561;1273;40857;-74
2022/03/03 06:15:15;;;;;;;52.00;28.40;;;;;;;-1.64;68.25;96688.86;107637;1273;35365;-74
2022/03/03 06:17:48;;;;;;;48.80;29.30;;;;;;;-1.49;67.98;96691.55;107589;1273;31889;-74
2022/03/03 06:20:25;;;;;;;49.70;29.90;;;;;;;-1.33;67.63;96692.03;107670;1273;38955;-74
2022/03/03 06:22:56;;;;;;;53.90;29.50;;;;;;;-1.17;67.06;96700.02;107553;1273;42970;-73
2022/03/03 06:25:27;;;;;;;54.30;30.70;;;;;;;-0.99;67.06;96697.91;107633;1273;41608;-73
2022/03/03 06:27:58;;;;;;;53.30;30.10;;;;;;;-0.78;66.72;96694.02;107679;1272;30719;-73
2022/03/03 06:30:31;;;;;;;52.60;30.50;;;;;;;-0.45;66.50;96693.23;107565;1275;40702;-73
2022/03/03 06:33:03;;;;;;;53.00;32.10;;;;;;;-0.08;65.77;96691.64;107540;1273;65905;-74
2022/03/03 06:35:36;;;;;;;51.90;30.30;;;;;;;0.33;65.24;96687.81;107561;1273;37039;-74
2022/03/03 06:38:08;;;;;;;54.90;33.50;;;;;;;0.87;64.72;96688.38;107578;1275;38970;-74
2022/03/03 06:40:39;;;;;;;60.00;37.40;;;;;;;1.29;63.38;96686.01;107550;1273;71146;-74
2022/03/03 06:43:10;;;;;;;64.90;37.80;;;;;;;1.40;62.72;96681.07;107573;1273;37350;-74
2022/03/03 06:45:41;;;;;;;57.40;39.90;;;;;;;1.58;62.19;96680.34;107628;1273;32504;-74
2022/03/03 06:48:13;;;;;;;59.30;39.50;;;;;;;1.92;61.52;96682.33;107628;1273;34478;-74
2022/03/03 06:50:44;;;;;;;62.70;40.80;;;;;;;2.05;60.28;96681.75;107702;1273;30341;-74
2022/03/03 06:53:17;;;;;;;58.50;39.10;;;;;;;2.37;59.68;96685.00;107554;1273;42651;-74
2022/03/03 06:55:51;;;;;;;58.50;37.80;;;;;;;2.28;58.58;96687.86;107492;1273;170910;-74
2022/03/03 06:58:26;;;;;;;59.80;38.10;;;;;;;1.95;58.81;96692.14;107586;1273;34887;-74
2022/03/03 07:00:57;;;;;;;58.40;39.10;;;;;;;1.94;58.69;96688.98;107558;1273;33311;-74
2022/03/03 07:03:30;;;;;;;60.60;40.20;;;;;;;2.37;59.01;96685.51;107592;1273;31375;-74
2022/03/03 07:06:03;;;;;;;60.00;42.10;;;;;;;3.28;58.57;96687.52;107627;1273;54839;-74
2022/03/03 07:08:34;;;;;;;54.10;39.10;;;;;;;4.17;57.57;96685.11;107589;1273;34258;-74
2022/03/03 07:11:06;;;;;;;63.10;47.30;;;;;;;5.01;55.70;96685.34;107581;1273;59243;-74
2022/03/03 07:13:38;;;;;;;48.30;38.00;;;;;;;5.46;55.55;96686.80;107570;1273;74406;-74
2022/03/03 07:16:23;;;;;;;51.40;38.90;;;;;;;6.30;54.49;96686.31;107611;1273;31447;-74
2022/03/03 07:18:56;;;;;;;37.60;27.50;;;;;;;7.01;53.08;96682.64;107587;1273;39948;-74
2022/03/03 07:21:37;;;;;;;31.10;24.00;;;;;;;7.09;50.10;96681.90;107655;1273;42738;-74
2022/03/03 07:24:17;;;;;;;28.90;23.50;;;;;;;6.90;49.38;96683.09;107594;1273;40344;-75
2022/03/03 07:26:49;;;;;;;52.10;37.30;;;;;;;6.97;48.49;96683.66;107579;1273;52200;-74
2022/03/03 07:29:26;;;;;;;31.30;24.90;;;;;;;7.19;48.75;96685.55;107633;1273;32248;-75
2022/03/03 07:31:59;;;;;;;31.30;24.70;;;;;;;7.42;46.03;96682.52;107636;1273;42848;-74
2022/03/03 07:34:33;;;;;;;29.40;25.30;;;;;;;6.90;45.31;96683.52;107580;1273;42117;-74
2022/03/03 07:37:08;;;;;;;25.80;20.70;;;;;;;7.41;47.08;96687.63;107576;1273;40281;-74
2022/03/03 07:39:43;;;;;;;24.60;21.40;;;;;;;8.25;45.01;96687.74;107608;1273;42054;-74
2022/03/03 07:42:17;;;;;;;27.50;22.50;;;;;;;7.90;43.37;96690.45;107595;1273;52676;-74
2022/03/03 07:44:49;;;;;;;36.80;27.70;;;;;;;7.21;43.41;96688.04;107607;1273;38161;-75
2022/03/03 07:47:21;;;;;;;23.60;19.80;;;;;;;6.38;43.89;96686.81;107641;1273;39923;-75
2022/03/03 07:49:52;;;;;;;28.10;23.30;;;;;;;5.59;44.26;96691.91;107617;1273;39274;-74
2022/03/03 07:52:25;;;;;;;28.10;21.80;;;;;;;5.46;45.49;96689.27;107622;1273;40645;-74
2022/03/03 07:54:56;;;;;;;35.60;27.70;;;;;;;5.35;45.01;96693.02;107575;1273;31882;-74
2022/03/03 07:57:34;;;;;;;32.30;24.90;;;;;;;4.67;45.66;96691.38;107703;1273;34514;-74
2022/03/03 08:00:08;;;;;;;33.50;24.80;;;;;;;4.06;46.05;96695.10;107697;1273;54121;-74
2022/03/03 08:02:43;;;;;;;40.60;27.70;;;;;;;3.41;46.96;96697.44;107589;1273;38907;-74
2022/03/03 08:05:15;;;;;;;31.90;24.10;;;;;;;3.15;47.59;96698.19;107595;1273;50716;-74
2022/03/03 08:07:48;;;;;;;38.20;28.10;;;;;;;3.05;48.16;96698.60;107575;1273;36917;-73
2022/03/03 08:10:19;;;;;;;38.30;27.40;;;;;;;3.18;48.53;96695.12;107605;1273;34326;-73
2022/03/03 08:12:56;;;;;;;37.10;27.10;;;;;;;3.42;48.96;96694.27;107609;1273;32493;-73
2022/03/03 08:15:28;;;;;;;34.00;24.40;;;;;;;3.76;48.57;96688.66;107637;1273;38368;-73
2022/03/03 08:17:59;;;;;;;35.80;27.00;;;;;;;3.88;48.02;96691.27;107644;1273;36832;-73
2022/03/03 08:20:30;;;;;;;34.70;24.50;;;;;;;4.19;48.68;96692.09;107631;1273;36279;-73
2022/03/03 08:23:03;;;;;;;37.00;26.30;;;;;;;4.85;47.71;96686.84;107686;1273;31849;-73
2022/03/03 08:25:36;;;;;;;31.50;22.30;;;;;;;4.99;46.83;96685.31;107590;1273;42265;-74
2022/03/03 08:28:09;;;;;;;33.00;24.90;;;;;;;5.19;46.26;96680.18;107607;1273;29765;-73
2022/03/03 08:30:42;;;;;;;27.80;20.30;;;;;;;5.75;46.50;96683.23;107590;1273;36686;-74
2022/03/03 08:33:19;;;;;;;29.90;22.70;;;;;;;6.49;45.10;96678.38;107629;1273;40551;-73
2022/03/03 08:35:56;;;;;;;30.40;24.80;;;;;;;6.81;43.89;96674.80;107627;1273;33156;-74
2022/03/03 08:38:34;;;;;;;35.80;26.70;;;;;;;7.15;44.76;96673.87;107650;1271;37456;-73
2022/03/03 08:41:06;;;;;;;33.30;26.00;;;;;;;8.40;44.18;96666.23;107600;1273;37177;-72
2022/03/03 08:43:44;;;;;;;31.90;24.00;;;;;;;8.76;41.62;96661.05;107613;1273;40877;-74
2022/03/03 08:46:17;;;;;;;31.10;23.60;;;;;;;8.39;40.63;96664.16;107594;1273;38544;-74
2022/03/03 08:48:50;;;;;;;35.00;25.50;;;;;;;8.22;40.88;96665.09;107714;1273;36871;-73
2022/03/03 08:51:21;;;;;;;35.50;25.70;;;;;;;8.96;42.07;96660.38;107618;1273;32226;-73
2022/03/03 08:53:52;;;;;;;33.80;23.90;;;;;;;8.86;39.00;96656.42;107592;1273;34046;-73
2022/03/03 08:56:26;;;;;;;32.40;25.20;;;;;;;8.09;40.09;96662.14;107708;1273;41560;-73
2022/03/03 08:58:57;;;;;;;33.40;24.40;;;;;;;8.38;41.47;96658.36;107615;1273;30831;-73
2022/03/03 09:01:32;;;;;;;31.10;20.80;;;;;;;8.81;40.46;96653.10;107685;1273;29725;-74
2022/03/03 09:04:08;;;;;;;26.80;20.70;;;;;;;8.70;40.50;96658.81;107657;1273;35806;-73
2022/03/03 09:06:39;;;;;;;33.00;23.70;;;;;;;9.00;40.96;96655.31;107661;1273;34525;-74
2022/03/03 09:09:11;;;;;;;29.00;20.90;;;;;;;9.40;41.23;96653.38;107609;1273;32081;-74
2022/03/03 09:11:41;;;;;;;22.40;13.40;;;;;;;9.52;40.66;96646.83;107659;1273;31583;-73
2022/03/03 09:14:12;;;;;;;24.30;15.20;;;;;;;8.56;37.30;96643.79;107604;1273;35624;-73
2022/03/03 09:16:43;;;;;;;27.20;19.70;;;;;;;6.21;38.54;96645.68;107616;1273;38585;-73
2022/03/03 09:19:14;;;;;;;31.80;21.60;;;;;;;5.19;41.39;96648.30;107627;1273;31213;-73
2022/03/03 09:21:45;;;;;;;29.80;20.40;;;;;;;4.83;42.22;96649.30;107549;1273;49744;-73
2022/03/03 09:24:16;;;;;;;28.20;19.30;;;;;;;4.90;42.95;96645.68;107541;1273;49063;-73
2022/03/03 09:26:47;;;;;;;24.50;16.20;;;;;;;5.10;43.65;96642.38;107645;1273;38085;-73
2022/03/03 09:29:18;;;;;;;17.70;11.60;;;;;;;4.89;42.26;96632.30;107560;1273;44948;-73
2022/03/03 09:31:49;;;;;;;24.90;15.90;;;;;;;4.05;43.03;96633.95;107553;1273;39687;-73
2022/03/03 09:34:20;;;;;;;23.00;16.70;;;;;;;3.62;43.66;96640.90;107577;1274;38148;-74
2022/03/03 09:36:51;;;;;;;25.10;16.80;;;;;;;3.90;43.82;96632.03;107633;1273;28313;-73
2022/03/03 09:39:22;;;;;;;28.50;18.30;;;;;;;4.17;43.26;96632.45;107596;1273;34457;-74
2022/03/03 09:41:53;;;;;;;26.20;18.30;;;;;;;4.07;43.31;96633.33;107633;1273;32173;-73
2022/03/03 09:44:25;;;;;;;25.50;18.20;;;;;;;4.27;43.53;96628.56;107627;1273;46456;-74
2022/03/03 09:46:57;;;;;;;25.90;18.20;;;;;;;4.45;43.27;96629.66;107553;1274;36619;-74
2022/03/03 09:49:28;;;;;;;41.00;24.50;;;;;;;4.73;44.25;96631.45;107662;1274;25390;-74
2022/03/03 09:51:59;;;;;;;54.90;24.10;;;;;;;4.80;42.86;96630.66;107643;1274;42657;-74
2022/03/03 09:54:29;;;;;;;24.70;16.60;;;;;;;4.19;42.55;96633.86;107626;1273;63938;-74
2022/03/03 09:57:00;;;;;;;25.10;16.90;;;;;;;3.95;43.09;96634.04;107605;1273;43707;-74
2022/03/03 09:59:31;;;;;;;24.30;15.30;;;;;;;4.18;43.19;96632.88;107635;1273;36663;-74
2022/03/03 10:02:07;;;;;;;25.40;16.80;;;;;;;4.05;42.50;96632.65;107486;1274;34407;-75
2022/03/03 10:04:38;;;;;;;19.90;13.20;;;;;;;4.03;43.38;96635.52;107592;1275;40560;-74
2022/03/03 10:07:11;;;;;;;25.70;18.40;;;;;;;4.07;42.81;96635.26;107425;1275;36636;-74
2022/03/03 10:10:02;;;;;;;27.50;18.70;;;;;;;4.18;43.67;96634.14;107636;1274;27521;-74
2022/03/03 10:12:45;;;;;;;33.90;22.40;;;;;;;4.62;43.57;96635.23;107621;1273;36817;-74
2022/03/03 10:15:17;;;;;;;31.40;20.80;;;;;;;4.75;43.80;96634.05;107534;1273;31944;-74
2022/03/03 10:17:49;;;;;;;24.00;12.90;;;;;;;5.11;44.75;96635.24;107634;1274;31384;-74
2022/03/03 10:20:19;;;;;;;36.40;24.20;;;;;;;5.11;42.68;96629.09;107548;1274;52257;-74
2022/03/03 10:22:57;;;;;;;37.10;23.80;;;;;;;4.89;43.98;96638.98;107615;1275;30515;-74
2022/03/03 10:25:33;;;;;;;34.10;24.60;;;;;;;5.28;44.13;96636.94;107613;1275;52502;-74
2022/03/03 10:28:13;;;;;;;34.90;23.40;;;;;;;5.43;43.20;96632.55;107654;1274;32420;-74
2022/03/03 10:31:04;;;;;;;26.40;17.10;;;;;;;5.46;43.39;96624.13;107687;1274;31164;-74
2022/03/03 10:33:38;;;;;;;28.40;20.20;;;;;;;5.33;42.54;96623.48;107422;1275;204088;-74
2022/03/03 10:36:15;;;;;;;33.80;22.50;;;;;;;5.12;42.28;96617.18;107635;1275;37123;-74
2022/03/03 10:38:52;;;;;;;36.80;23.20;;;;;;;4.66;42.79;96614.95;107454;1274;44078;-74
2022/03/03 10:41:35;;;;;;;30.40;19.20;;;;;;;4.25;43.37;96617.11;107488;1274;43562;-74
2022/03/03 10:44:09;;;;;;;33.60;21.40;;;;;;;4.05;42.47;96610.84;107603;1275;39910;-74
2022/03/03 10:47:00;;;;;;;33.80;21.90;;;;;;;3.82;42.67;96613.45;107562;1275;40069;-74
2022/03/03 10:49:32;;;;;;;34.00;22.90;;;;;;;3.86;43.31;96615.99;107571;1274;40175;-73
2022/03/03 10:52:15;;;;;;;34.80;22.90;;;;;;;4.18;44.24;96611.95;107631;1274;32531;-74
2022/03/03 10:54:55;;;;;;;36.10;25.60;;;;;;;4.53;43.87;96611.63;107576;1274;37687;-74
2022/03/03 10:57:41;;;;;;;36.30;24.50;;;;;;;4.89;43.90;96608.93;107483;1274;70431;-74
2022/03/03 11:00:19;;;;;;;35.40;24.30;;;;;;;4.89;42.88;96604.89;107565;1273;31300;-74
2022/03/03 11:02:52;;;;;;;37.00;24.90;;;;;;;4.77;42.80;96603.10;107568;1273;43109;-74
2022/03/03 11:05:25;;;;;;;35.20;25.20;;;;;;;4.97;43.75;96598.06;107571;1273;38817;-73
2022/03/03 11:07:57;;;;;;;38.90;24.90;;;;;;;5.24;43.54;96591.64;107622;1273;39780;-74
2022/03/03 11:10:31;;;;;;;34.40;24.50;;;;;;;5.07;42.09;96593.42;107685;1274;40818;-74
2022/03/03 11:13:03;;;;;;;37.30;25.50;;;;;;;5.02;41.81;96590.50;107669;1274;33238;-74
2022/03/03 11:15:33;;;;;;;39.60;25.80;;;;;;;4.78;41.60;96593.02;107602;1273;42024;-74
2022/03/03 11:18:05;;;;;;;38.40;26.30;;;;;;;4.64;42.47;96590.55;107555;1274;69236;-74
2022/03/03 11:20:36;;;;;;;36.00;23.40;;;;;;;4.88;42.76;96589.33;107587;1273;47012;-74
2022/03/03 11:23:08;;;;;;;37.70;25.80;;;;;;;4.82;42.80;96588.77;107582;1274;41211;-74
2022/03/03 11:25:39;;;;;;;36.10;24.70;;;;;;;4.92;42.20;96582.71;107610;1273;35387;-74
2022/03/03 11:28:14;;;;;;;38.80;23.90;;;;;;;4.89;40.98;96579.61;107666;1273;39067;-74
2022/03/03 11:30:47;;;;;;;37.40;23.40;;;;;;;4.62;40.14;96578.30;107582;1273;39800;-74
2022/03/03 11:33:30;;;;;;;40.40;27.70;;;;;;;4.49;41.50;96575.43;107527;1274;43656;-74
2022/03/03 11:36:03;;;;;;;40.90;27.10;;;;;;;4.66;42.64;96574.67;107659;1274;33192;-74